createdAt,value
2018-11-06T00:01:08.951Z,5.7
2018-11-06T00:04:08.746Z,5.5
2018-11-06T00:07:08.867Z,6
2018-11-06T00:10:09.079Z,5.9
2018-11-06T00:13:09.056Z,5.7
2018-11-06T00:16:08.944Z,5.7
2018-11-06T00:19:08.948Z,5.8
2018-11-06T00:22:08.778Z,5.8
2018-11-06T00:25:08.922Z,6.1
2018-11-06T00:28:09.251Z,6.1
2018-11-06T00:31:08.760Z,5.9
2018-11-06T00:34:10.386Z,6.1
2018-11-06T00:37:08.906Z,6
2018-11-06T00:40:08.798Z,5.5
2018-11-06T00:43:08.804Z,6
2018-11-06T00:46:08.923Z,5.9
2018-11-06T00:49:08.930Z,5.7
2018-11-06T00:52:08.928Z,5.7
2018-11-06T00:55:08.947Z,6.2
2018-11-06T00:58:08.844Z,5.9
2018-11-06T01:01:08.772Z,5.9
2018-11-06T01:04:08.863Z,5.7
2018-11-06T01:07:08.747Z,5.8
2018-11-06T01:10:08.822Z,5.8
2018-11-06T01:13:09.171Z,5.8
2018-11-06T01:16:09.184Z,5.8
2018-11-06T01:19:08.800Z,5.7
2018-11-06T01:22:08.946Z,5.9
2018-11-06T01:25:09.024Z,6
2018-11-06T01:28:08.780Z,5.8
2018-11-06T01:31:09.105Z,5.9
2018-11-06T01:34:08.943Z,5.4
2018-11-06T01:37:08.728Z,5.5
2018-11-06T01:40:08.805Z,5.7
2018-11-06T01:43:08.885Z,5.7
2018-11-06T01:46:08.864Z,5.4
2018-11-06T01:49:08.870Z,5.8
2018-11-06T01:52:08.963Z,5.9
2018-11-06T01:55:08.726Z,5.4
2018-11-06T01:58:08.803Z,5.6
2018-11-06T02:01:08.875Z,5.8
2018-11-06T02:04:08.968Z,5.3
2018-11-06T02:07:08.862Z,5.6
2018-11-06T02:10:08.983Z,5.8
2018-11-06T02:13:08.831Z,5.4
2018-11-06T02:16:08.984Z,5.4
2018-11-06T02:19:08.857Z,5.6
2018-11-06T02:22:08.830Z,5.5
2018-11-06T02:25:08.830Z,5.2
2018-11-06T02:28:08.868Z,5.3
2018-11-06T02:31:08.904Z,5.3
2018-11-06T02:34:08.862Z,5.2
2018-11-06T02:37:08.823Z,5.4
2018-11-06T02:40:08.865Z,5.1
2018-11-06T02:43:09.247Z,5.1
2018-11-06T02:46:09.095Z,5.1
2018-11-06T02:49:08.639Z,5.3
2018-11-06T02:52:08.913Z,5.2
2018-11-06T02:55:08.786Z,5.2
2018-11-06T02:58:09.003Z,5.5
2018-11-06T03:01:08.700Z,5.2
2018-11-06T03:04:08.836Z,5.1
2018-11-06T03:07:08.882Z,5
2018-11-06T03:10:09.566Z,5
2018-11-06T03:13:08.792Z,5.1
2018-11-06T03:16:08.820Z,5.3
2018-11-06T03:19:08.671Z,4.9
2018-11-06T03:22:08.758Z,5.2
2018-11-06T03:25:08.784Z,5.3
2018-11-06T03:28:08.896Z,5.1
2018-11-06T03:31:08.798Z,4.9
2018-11-06T03:34:09.020Z,5
2018-11-06T03:37:09.002Z,5.2
2018-11-06T03:40:08.794Z,4.9
2018-11-06T03:43:08.887Z,5.2
2018-11-06T03:46:08.846Z,4.8
2018-11-06T03:49:08.610Z,5.2
2018-11-06T03:52:08.754Z,4.9
2018-11-06T03:55:08.798Z,5
2018-11-06T03:58:08.992Z,4.8
2018-11-06T04:01:08.751Z,5
2018-11-06T04:04:08.918Z,4.9
2018-11-06T04:07:09.200Z,5
2018-11-06T04:10:09.036Z,5
2018-11-06T04:13:08.875Z,5
2018-11-06T04:16:08.876Z,5
2018-11-06T04:19:09.190Z,4.8
2018-11-06T04:22:08.783Z,4.8
2018-11-06T04:25:08.876Z,5.3
2018-11-06T04:28:09.030Z,5.2
2018-11-06T04:31:08.709Z,5
2018-11-06T04:34:08.738Z,5.2
2018-11-06T04:37:08.878Z,4.8
2018-11-06T04:40:08.762Z,5
2018-11-06T04:43:08.832Z,5
2018-11-06T04:46:09.392Z,5
2018-11-06T04:49:08.819Z,5
2018-11-06T04:52:08.742Z,5
2018-11-06T04:55:08.937Z,4.9
2018-11-06T04:58:08.814Z,5.1
2018-11-06T05:01:08.815Z,5
2018-11-06T05:04:08.816Z,4.9
2018-11-06T05:07:08.830Z,5.5
2018-11-06T05:10:08.856Z,5.2
2018-11-06T05:13:08.856Z,5
2018-11-06T05:16:08.979Z,5.1
2018-11-06T05:19:08.863Z,5.3
2018-11-06T05:22:08.877Z,5.4
2018-11-06T05:25:09.094Z,4.8
2018-11-06T05:28:09.124Z,5.2
2018-11-06T05:31:09.088Z,4.9
2018-11-06T05:34:08.908Z,4.9
2018-11-06T05:37:08.923Z,4.8
2018-11-06T05:40:09.085Z,5.1
2018-11-06T05:43:09.044Z,4.7
2018-11-06T05:46:08.703Z,5
2018-11-06T05:49:09.077Z,4.9
2018-11-06T05:52:08.968Z,4.9
2018-11-06T05:55:08.793Z,4.6
2018-11-06T05:58:08.981Z,4.9
2018-11-06T06:01:08.901Z,4.9
2018-11-06T06:04:09.259Z,4.9
2018-11-06T06:07:08.721Z,4.7
2018-11-06T06:10:08.671Z,4.6
2018-11-06T06:13:08.821Z,4.8
2018-11-06T06:16:08.556Z,4.9
2018-11-06T06:19:09.033Z,4.6
2018-11-06T06:22:08.821Z,4.8
2018-11-06T06:25:08.845Z,4.7
2018-11-06T06:28:08.715Z,4.6
2018-11-06T06:31:08.766Z,4.6
2018-11-06T06:34:08.752Z,4.5
2018-11-06T06:37:08.599Z,4.7
2018-11-06T06:40:10.408Z,4.7
2018-11-06T06:43:08.733Z,4.6
2018-11-06T06:46:09.251Z,4.3
2018-11-06T06:49:08.784Z,4.6
2018-11-06T06:52:08.967Z,4.7
2018-11-06T06:55:10.797Z,4.7
2018-11-06T06:58:08.594Z,4.9
2018-11-06T07:01:08.896Z,5.5
2018-11-06T07:04:08.699Z,4.7
2018-11-06T07:07:09.179Z,5.2
2018-11-06T07:10:08.723Z,5
2018-11-06T07:13:10.410Z,4.6
2018-11-06T07:16:09.001Z,5
2018-11-06T07:19:08.736Z,4.5
2018-11-06T07:22:08.821Z,5
2018-11-06T07:25:08.797Z,5
2018-11-06T07:28:09.132Z,5
2018-11-06T07:31:08.585Z,4.8
2018-11-06T07:34:08.709Z,4.8
2018-11-06T07:37:08.861Z,4.7
2018-11-06T07:40:08.636Z,4.7
2018-11-06T07:43:09.057Z,4.9
2018-11-06T07:46:09.539Z,4.7
2018-11-06T07:49:08.803Z,4.5
2018-11-06T07:52:08.823Z,4.8
2018-11-06T07:55:08.722Z,4.9
2018-11-06T07:58:08.725Z,4.5
2018-11-06T08:01:08.729Z,4.7
2018-11-06T08:04:09.273Z,4.8
2018-11-06T08:07:08.696Z,4.5
2018-11-06T08:10:08.752Z,4.8
2018-11-06T08:13:08.499Z,5
2018-11-06T08:16:08.532Z,4.8
2018-11-06T08:19:08.692Z,4.7
2018-11-06T08:22:08.498Z,4.9
2018-11-06T08:25:08.910Z,5.2
2018-11-06T08:28:08.966Z,4.8
2018-11-06T08:31:12.309Z,5
2018-11-06T08:34:08.536Z,4.9
2018-11-06T08:37:11.142Z,4.7
2018-11-06T08:40:08.740Z,5.3
2018-11-06T08:43:08.555Z,4.8
2018-11-06T08:46:09.067Z,4.9
2018-11-06T08:49:08.889Z,4.7
2018-11-06T08:52:08.796Z,4.9
2018-11-06T08:55:08.825Z,4.8
2018-11-06T08:58:08.858Z,4.9
2018-11-06T09:01:08.788Z,4.9
2018-11-06T09:04:08.736Z,4.9
2018-11-06T09:07:08.602Z,5
2018-11-06T09:10:09.182Z,5
2018-11-06T09:13:08.813Z,5.3
2018-11-06T09:16:08.577Z,4.9
2018-11-06T09:19:08.633Z,5.5
2018-11-06T09:22:09.225Z,5
2018-11-06T09:25:08.981Z,5.1
2018-11-06T09:28:09.114Z,4.9
2018-11-06T09:31:10.646Z,5.2
2018-11-06T09:34:08.824Z,5.3
2018-11-06T09:37:08.764Z,5
2018-11-06T09:40:08.651Z,5.1
2018-11-06T09:43:08.749Z,5.1
2018-11-06T09:46:08.583Z,5
2018-11-06T09:49:08.688Z,5.2
2018-11-06T09:52:10.877Z,5.4
2018-11-06T09:55:09.002Z,5.3
2018-11-06T09:58:08.538Z,5.4
2018-11-06T10:01:09.503Z,5.2
2018-11-06T10:04:08.828Z,5.1
2018-11-06T10:07:14.217Z,5.6
2018-11-06T10:10:08.968Z,5
2018-11-06T10:13:08.667Z,5.3
2018-11-06T10:16:09.010Z,9.9
2018-11-06T10:19:08.539Z,9.2
2018-11-06T10:22:08.831Z,10.5
2018-11-06T10:25:09.003Z,13.6
2018-11-06T10:28:09.070Z,11.7
2018-11-06T10:31:08.872Z,13
2018-11-06T10:34:08.656Z,13.3
2018-11-06T10:37:08.474Z,13
2018-11-06T10:40:08.659Z,14.6
2018-11-06T10:43:08.591Z,14.9
2018-11-06T10:46:08.963Z,15.7
2018-11-06T10:49:08.726Z,19.4
2018-11-06T10:52:08.575Z,16.3
2018-11-06T10:55:08.768Z,12.8
2018-11-06T10:58:10.639Z,13.8
2018-11-06T11:01:08.984Z,13
2018-11-06T11:04:09.945Z,12.4
2018-11-06T11:07:08.927Z,11.3
2018-11-06T11:10:08.501Z,11.7
2018-11-06T11:13:08.559Z,11.5
2018-11-06T11:16:08.700Z,13.1
2018-11-06T11:19:08.455Z,11.5
2018-11-06T11:22:08.529Z,11.5
2018-11-06T11:25:08.753Z,11.4
2018-11-06T11:28:08.741Z,10.7
2018-11-06T11:31:08.501Z,12.1
2018-11-06T11:34:08.933Z,11.3
2018-11-06T11:37:08.935Z,11.1
2018-11-06T11:40:08.539Z,11.6
2018-11-06T11:43:08.789Z,11.2
2018-11-06T11:46:08.855Z,11.3
2018-11-06T11:49:08.733Z,11.6
2018-11-06T11:52:08.466Z,10.7
2018-11-06T11:55:08.547Z,11.2
2018-11-06T11:58:08.910Z,11.6
2018-11-06T12:01:08.807Z,10.9
2018-11-06T12:04:08.447Z,10.9
2018-11-06T12:07:08.696Z,11.1
2018-11-06T12:10:08.881Z,10.8
2018-11-06T12:13:08.521Z,11.2
2018-11-06T12:16:08.783Z,10.6
2018-11-06T12:19:08.949Z,11.3
2018-11-06T12:22:08.538Z,11
2018-11-06T12:25:12.470Z,10.9
2018-11-06T12:28:08.798Z,10.4
2018-11-06T12:31:08.499Z,10.8
2018-11-06T12:34:08.714Z,10.6
2018-11-06T12:37:10.451Z,11
2018-11-06T12:40:08.642Z,10.8
2018-11-06T12:43:10.962Z,10.4
2018-11-06T12:46:08.738Z,10.8
2018-11-06T12:49:08.446Z,14.1
2018-11-06T12:52:08.501Z,10.4
2018-11-06T12:55:08.598Z,10.3
2018-11-06T12:58:08.556Z,10.4
2018-11-06T13:01:08.587Z,10.8
2018-11-06T13:04:08.957Z,10.7
2018-11-06T13:07:08.926Z,9.7
2018-11-06T13:10:09.000Z,9.9
2018-11-06T13:13:08.924Z,9.9
2018-11-06T13:16:10.080Z,10.9
2018-11-06T13:19:08.511Z,10
2018-11-06T13:22:08.461Z,10.7
2018-11-06T13:25:08.593Z,10
2018-11-06T13:28:08.825Z,10.1
2018-11-06T13:31:08.432Z,10.4
2018-11-06T13:34:08.805Z,9.7
2018-11-06T13:37:08.790Z,9.7
2018-11-06T13:40:08.894Z,9.8
2018-11-06T13:43:10.170Z,9.7
2018-11-06T13:46:08.841Z,10.1
2018-11-06T13:49:08.980Z,10.4
2018-11-06T13:52:09.641Z,10
2018-11-06T13:55:08.975Z,9.7
2018-11-06T13:58:08.545Z,10.1
2018-11-06T14:01:08.870Z,10
2018-11-06T14:04:09.359Z,10
2018-11-06T14:07:08.798Z,9.7
2018-11-06T14:10:08.980Z,10.3
2018-11-06T14:13:08.948Z,10
2018-11-06T14:16:08.499Z,9.7
2018-11-06T14:19:08.470Z,10.1
2018-11-06T14:22:08.546Z,10.3
2018-11-06T14:25:08.632Z,9.8
2018-11-06T14:28:08.714Z,10.2
2018-11-06T14:31:08.774Z,9.6
2018-11-06T14:34:08.777Z,10.1
2018-11-06T14:37:08.376Z,10.4
2018-11-06T14:40:08.953Z,10.4
2018-11-06T14:43:08.597Z,10.6
2018-11-06T14:46:08.375Z,10.3
2018-11-06T14:49:08.955Z,10.5
2018-11-06T14:52:08.630Z,10.1
2018-11-06T14:55:08.600Z,11
2018-11-06T14:58:08.732Z,10.2
2018-11-06T15:01:08.564Z,11.3
2018-11-06T15:04:08.663Z,11.2
2018-11-06T15:07:08.669Z,10.6
2018-11-06T15:10:08.442Z,10.9
2018-11-06T15:13:08.570Z,11.1
2018-11-06T15:16:08.581Z,11.3
2018-11-06T15:19:08.609Z,10.8
2018-11-06T15:22:08.388Z,10.5
2018-11-06T15:25:08.431Z,10.8
2018-11-06T15:28:08.611Z,11.3
2018-11-06T15:31:08.478Z,11.2
2018-11-06T15:34:08.419Z,10.9
2018-11-06T15:37:08.498Z,10.9
2018-11-06T15:40:08.992Z,10.5
2018-11-06T15:43:08.561Z,11.9
2018-11-06T15:46:08.716Z,11.7
2018-11-06T15:49:10.343Z,12.1
2018-11-06T15:52:09.435Z,14
2018-11-06T15:55:08.518Z,12.8
2018-11-06T15:58:08.918Z,13.2
2018-11-06T16:01:09.803Z,12.6
2018-11-06T16:04:09.000Z,11.7
2018-11-06T16:07:09.056Z,12.3
2018-11-06T16:10:08.446Z,11.6
2018-11-06T16:13:08.506Z,12
2018-11-06T16:16:08.884Z,12.3
2018-11-06T16:19:08.427Z,11.9
2018-11-06T16:22:08.411Z,12.6
2018-11-06T16:25:08.442Z,12.4
2018-11-06T16:28:09.081Z,11.8
2018-11-06T16:31:08.305Z,12.7
2018-11-06T16:34:08.661Z,12.2
2018-11-06T16:37:08.654Z,11.9
2018-11-06T16:40:08.638Z,11.4
2018-11-06T16:43:08.405Z,10.9
2018-11-06T16:46:08.519Z,11.3
2018-11-06T16:49:08.826Z,11.3
2018-11-06T16:52:08.777Z,10.8
2018-11-06T16:55:08.384Z,11.3
2018-11-06T16:58:08.790Z,11.9
2018-11-06T17:01:12.074Z,10.8
2018-11-06T17:04:09.206Z,11.2
2018-11-06T17:07:08.874Z,11.4
2018-11-06T17:10:08.862Z,11.5
2018-11-06T17:13:08.827Z,11.2
2018-11-06T17:16:08.634Z,10.8
2018-11-06T17:19:08.534Z,11
2018-11-06T17:22:08.502Z,11.2
2018-11-06T17:25:08.400Z,11
2018-11-06T17:28:08.516Z,11.2
2018-11-06T17:31:08.928Z,11.2
2018-11-06T17:34:08.557Z,10.7
2018-11-06T17:37:08.390Z,10.5
2018-11-06T17:40:08.671Z,10.9
2018-11-06T17:43:08.692Z,11.1
2018-11-06T17:46:08.656Z,10.5
2018-11-06T17:49:08.428Z,10.4
2018-11-06T17:52:08.470Z,11.4
2018-11-06T17:55:10.069Z,10.6
2018-11-06T17:58:08.374Z,10.6
2018-11-06T18:01:08.417Z,10.7
2018-11-06T18:04:10.536Z,10.1
2018-11-06T18:07:08.553Z,10.8
2018-11-06T18:10:08.396Z,10
2018-11-06T18:13:08.557Z,10.2
2018-11-06T18:16:08.741Z,9.9
2018-11-06T18:19:08.340Z,10
2018-11-06T18:22:08.395Z,9.8
2018-11-06T18:25:10.038Z,10.1
2018-11-06T18:28:08.510Z,10.1
2018-11-06T18:31:08.461Z,10.5
2018-11-06T18:34:08.450Z,10
2018-11-06T18:37:09.025Z,10
2018-11-06T18:40:08.444Z,10.1
2018-11-06T18:43:08.577Z,10.3
2018-11-06T18:46:08.607Z,10
2018-11-06T18:49:08.324Z,9.8
2018-11-06T18:52:08.508Z,9.8
2018-11-06T18:55:08.502Z,10.3
2018-11-06T18:58:10.744Z,12
2018-11-06T19:01:08.296Z,10.2
2018-11-06T19:04:08.440Z,10.3
2018-11-06T19:07:08.393Z,10.5
2018-11-06T19:10:08.752Z,10.5
2018-11-06T19:13:08.787Z,10.3
2018-11-06T19:16:08.537Z,10.6
2018-11-06T19:19:08.565Z,9.8
2018-11-06T19:22:08.295Z,10.3
2018-11-06T19:25:08.351Z,10.1
2018-11-06T19:28:08.480Z,10
2018-11-06T19:31:08.295Z,10
2018-11-06T19:34:08.397Z,9.8
2018-11-06T19:37:08.470Z,10.7
2018-11-06T19:40:08.536Z,9.8
2018-11-06T19:43:08.712Z,9.5
2018-11-06T19:46:08.553Z,11.6
2018-11-06T19:49:08.400Z,9.8
2018-11-06T19:52:08.279Z,9.6
2018-11-06T19:55:08.369Z,9.8
2018-11-06T19:58:08.547Z,9.8
2018-11-06T20:01:10.003Z,10.1
2018-11-06T20:04:08.501Z,9.7
2018-11-06T20:07:08.597Z,9.8
2018-11-06T20:10:08.346Z,16.3
2018-11-06T20:13:08.499Z,12.7
2018-11-06T20:16:08.213Z,10.9
2018-11-06T20:19:08.401Z,13.2
2018-11-06T20:22:08.662Z,12.5
2018-11-06T20:25:08.430Z,11
2018-11-06T20:28:08.454Z,11.3
2018-11-06T20:31:08.346Z,11.8
2018-11-06T20:34:08.708Z,10.4
2018-11-06T20:37:08.365Z,10.2
2018-11-06T20:40:08.542Z,10.7
2018-11-06T20:43:09.444Z,10.6
2018-11-06T20:46:09.389Z,9.9
2018-11-06T20:49:08.709Z,9.8
2018-11-06T20:52:08.514Z,10.8
2018-11-06T20:55:08.226Z,10
2018-11-06T20:58:08.391Z,10.7
2018-11-06T21:01:09.537Z,9.9
2018-11-06T21:04:08.328Z,9.9
2018-11-06T21:07:08.497Z,11.1
2018-11-06T21:10:08.294Z,9.5
2018-11-06T21:13:09.795Z,10.3
2018-11-06T21:16:08.448Z,10.3
2018-11-06T21:19:08.534Z,9.4
2018-11-06T21:22:08.232Z,9.4
2018-11-06T21:25:10.156Z,9.5
2018-11-06T21:28:08.525Z,9.5
2018-11-06T21:31:08.726Z,9.7
2018-11-06T21:34:08.301Z,9.2
2018-11-06T21:37:08.275Z,10.1
2018-11-06T21:40:08.574Z,9.1
2018-11-06T21:43:08.594Z,10.1
2018-11-06T21:46:08.430Z,9.4
2018-11-06T21:49:08.560Z,9.2
2018-11-06T21:52:08.637Z,9.1
2018-11-06T21:55:08.259Z,9.2
2018-11-06T21:58:08.579Z,9
2018-11-06T22:01:08.813Z,8.9
2018-11-06T22:04:08.495Z,9.3
2018-11-06T22:07:08.297Z,8.9
2018-11-06T22:10:08.305Z,8.7
2018-11-06T22:13:10.310Z,8.8
2018-11-06T22:16:08.279Z,9
2018-11-06T22:19:08.295Z,8.7
2018-11-06T22:22:09.279Z,8.7
2018-11-06T22:25:08.428Z,9.3
2018-11-06T22:28:08.218Z,8.9
2018-11-06T22:31:08.336Z,8.3
2018-11-06T22:34:08.387Z,9.3
2018-11-06T22:37:09.858Z,8.5
2018-11-06T22:40:08.261Z,8.9
2018-11-06T22:43:08.362Z,8.5
2018-11-06T22:46:08.463Z,8.6
2018-11-06T22:49:08.943Z,8.9
2018-11-06T22:52:08.519Z,8.6
2018-11-06T22:55:08.610Z,8.4
2018-11-06T22:58:08.247Z,8.4
2018-11-06T23:01:08.456Z,8.8
2018-11-06T23:04:08.664Z,8.1
2018-11-06T23:07:12.935Z,8.2
2018-11-06T23:10:08.481Z,8.2
2018-11-06T23:13:08.269Z,8.7
2018-11-06T23:16:08.361Z,8.3
2018-11-06T23:19:08.197Z,8.5
2018-11-06T23:22:08.371Z,8.4
2018-11-06T23:25:10.291Z,8.4
2018-11-06T23:28:08.910Z,8.2
2018-11-06T23:31:08.173Z,7.9
2018-11-06T23:34:08.424Z,8
2018-11-06T23:37:08.437Z,8.3
2018-11-06T23:40:08.292Z,8.3
2018-11-06T23:43:08.745Z,8.8
2018-11-06T23:46:08.336Z,7.9
2018-11-06T23:49:08.255Z,8
2018-11-06T23:52:08.359Z,7.9
2018-11-06T23:55:09.643Z,8.2
2018-11-06T23:58:08.309Z,7.9
